sensor_id;sensor_type;location;lat;lon;timestamp;P1;durP1;ratioP1;P2;durP2;ratioP2
74926;SDS011;63488;48.092;-1.640;2023-07-20T00:01:39;5.63;;;2.50;;
74926;SDS011;63488;48.092;-1.640;2023-07-20T00:04:10;4.70;;;1.52;;
74926;SDS011;63488;48.092;-1.640;2023-07-20T00:06:35;4.15;;;1.85;;
74926;SDS011;63488;48.092;-1.640;2023-07-20T00:09:00;5.43;;;1.90;;
74926;SDS011;63488;48.092;-1.640;2023-07-20T00:11:26;7.53;;;1.95;;
74926;SDS011;63488;48.092;-1.640;2023-07-20T00:13:52;4.93;;;2.20;;
74926;SDS011;63488;48.092;-1.640;2023-07-20T00:16:17;5.10;;;2.20;;
74926;SDS011;63488;48.092;-1.640;2023-07-20T00:18:43;6.90;;;2.00;;
74926;SDS011;63488;48.092;-1.640;2023-07-20T00:21:08;8.07;;;2.17;;
74926;SDS011;63488;48.092;-1.640;2023-07-20T00:23:34;6.55;;;2.10;;
74926;SDS011;63488;48.092;-1.640;2023-07-20T00:26:00;6.72;;;1.92;;
74926;SDS011;63488;48.092;-1.640;2023-07-20T00:28:25;4.65;;;1.88;;
74926;SDS011;63488;48.092;-1.640;2023-07-20T00:30:50;7.25;;;2.00;;
74926;SDS011;63488;48.092;-1.640;2023-07-20T00:33:16;5.00;;;1.83;;
74926;SDS011;63488;48.092;-1.640;2023-07-20T00:35:42;8.07;;;1.95;;
74926;SDS011;63488;48.092;-1.640;2023-07-20T00:38:07;6.80;;;2.25;;
74926;SDS011;63488;48.092;-1.640;2023-07-20T00:40:38;5.07;;;1.73;;
74926;SDS011;63488;48.092;-1.640;2023-07-20T00:43:04;5.65;;;1.63;;
74926;SDS011;63488;48.092;-1.640;2023-07-20T00:45:29;5.57;;;2.05;;
74926;SDS011;63488;48.092;-1.640;2023-07-20T00:47:55;6.82;;;1.95;;
74926;SDS011;63488;48.092;-1.640;2023-07-20T00:50:21;6.20;;;2.00;;
74926;SDS011;63488;48.092;-1.640;2023-07-20T00:52:46;6.03;;;1.83;;
74926;SDS011;63488;48.092;-1.640;2023-07-20T00:55:11;6.50;;;1.88;;
74926;SDS011;63488;48.092;-1.640;2023-07-20T00:57:37;3.10;;;1.63;;
74926;SDS011;63488;48.092;-1.640;2023-07-20T01:00:02;5.47;;;2.08;;
74926;SDS011;63488;48.092;-1.640;2023-07-20T01:02:28;4.68;;;1.77;;
74926;SDS011;63488;48.092;-1.640;2023-07-20T01:04:53;6.57;;;1.70;;
74926;SDS011;63488;48.092;-1.640;2023-07-20T01:07:31;6.00;;;1.85;;
74926;SDS011;63488;48.092;-1.640;2023-07-20T01:12:42;7.75;;;2.15;;
74926;SDS011;63488;48.092;-1.640;2023-07-20T01:15:08;5.13;;;1.90;;
74926;SDS011;63488;48.092;-1.640;2023-07-20T01:17:34;4.43;;;1.80;;
74926;SDS011;63488;48.092;-1.640;2023-07-20T01:19:59;6.10;;;1.95;;
74926;SDS011;63488;48.092;-1.640;2023-07-20T01:32:31;5.65;;;1.70;;
74926;SDS011;63488;48.092;-1.640;2023-07-20T01:34:57;6.63;;;1.98;;
74926;SDS011;63488;48.092;-1.640;2023-07-20T01:37:23;6.00;;;2.08;;
74926;SDS011;63488;48.092;-1.640;2023-07-20T01:39:53;4.43;;;1.85;;
74926;SDS011;63488;48.092;-1.640;2023-07-20T01:42:21;5.47;;;1.92;;
74926;SDS011;63488;48.092;-1.640;2023-07-20T01:44:47;5.60;;;1.80;;
74926;SDS011;63488;48.092;-1.640;2023-07-20T01:47:12;5.30;;;1.80;;
74926;SDS011;63488;48.092;-1.640;2023-07-20T01:49:37;4.47;;;1.85;;
74926;SDS011;63488;48.092;-1.640;2023-07-20T01:52:03;4.57;;;2.00;;
74926;SDS011;63488;48.092;-1.640;2023-07-20T01:54:28;4.97;;;1.92;;
74926;SDS011;63488;48.092;-1.640;2023-07-20T01:56:54;7.85;;;2.05;;
74926;SDS011;63488;48.092;-1.640;2023-07-20T01:59:19;8.18;;;1.88;;
74926;SDS011;63488;48.092;-1.640;2023-07-20T02:01:44;4.70;;;1.80;;
74926;SDS011;63488;48.092;-1.640;2023-07-20T02:04:10;4.25;;;1.70;;
74926;SDS011;63488;48.092;-1.640;2023-07-20T02:06:35;4.55;;;2.08;;
74926;SDS011;63488;48.092;-1.640;2023-07-20T02:09:00;5.45;;;1.95;;
74926;SDS011;63488;48.092;-1.640;2023-07-20T02:11:26;5.97;;;2.10;;
74926;SDS011;63488;48.092;-1.640;2023-07-20T02:13:51;4.95;;;2.00;;
74926;SDS011;63488;48.092;-1.640;2023-07-20T02:16:16;7.30;;;1.90;;
74926;SDS011;63488;48.092;-1.640;2023-07-20T02:18:42;6.07;;;2.00;;
74926;SDS011;63488;48.092;-1.640;2023-07-20T02:21:07;6.13;;;2.13;;
74926;SDS011;63488;48.092;-1.640;2023-07-20T02:23:32;6.57;;;2.17;;
74926;SDS011;63488;48.092;-1.640;2023-07-20T02:25:58;4.95;;;1.67;;
74926;SDS011;63488;48.092;-1.640;2023-07-20T02:28:23;4.88;;;1.90;;
74926;SDS011;63488;48.092;-1.640;2023-07-20T02:30:48;6.50;;;2.20;;
74926;SDS011;63488;48.092;-1.640;2023-07-20T02:33:15;5.80;;;1.88;;
74926;SDS011;63488;48.092;-1.640;2023-07-20T02:35:40;3.97;;;1.67;;
74926;SDS011;63488;48.092;-1.640;2023-07-20T02:38:05;4.95;;;2.00;;
74926;SDS011;63488;48.092;-1.640;2023-07-20T02:40:32;5.10;;;2.05;;
74926;SDS011;63488;48.092;-1.640;2023-07-20T02:42:57;5.85;;;1.90;;
74926;SDS011;63488;48.092;-1.640;2023-07-20T02:45:22;4.55;;;1.80;;
74926;SDS011;63488;48.092;-1.640;2023-07-20T02:47:48;4.38;;;1.75;;
74926;SDS011;63488;48.092;-1.640;2023-07-20T02:50:14;3.97;;;1.55;;
74926;SDS011;63488;48.092;-1.640;2023-07-20T02:52:39;6.72;;;1.98;;
74926;SDS011;63488;48.092;-1.640;2023-07-20T02:55:05;3.25;;;1.60;;
74926;SDS011;63488;48.092;-1.640;2023-07-20T02:57:30;4.53;;;1.77;;
74926;SDS011;63488;48.092;-1.640;2023-07-20T02:59:56;6.50;;;1.80;;
74926;SDS011;63488;48.092;-1.640;2023-07-20T03:02:21;2.60;;;1.35;;
74926;SDS011;63488;48.092;-1.640;2023-07-20T03:04:46;4.60;;;2.00;;
74926;SDS011;63488;48.092;-1.640;2023-07-20T03:07:12;5.18;;;1.60;;
74926;SDS011;63488;48.092;-1.640;2023-07-20T03:09:37;5.57;;;2.08;;
74926;SDS011;63488;48.092;-1.640;2023-07-20T03:12:03;4.50;;;1.75;;
74926;SDS011;63488;48.092;-1.640;2023-07-20T03:14:30;4.85;;;1.52;;
74926;SDS011;63488;48.092;-1.640;2023-07-20T03:16:55;4.43;;;1.70;;
74926;SDS011;63488;48.092;-1.640;2023-07-20T03:19:20;3.97;;;1.80;;
74926;SDS011;63488;48.092;-1.640;2023-07-20T03:21:46;3.38;;;1.80;;
74926;SDS011;63488;48.092;-1.640;2023-07-20T03:24:11;3.83;;;1.92;;
74926;SDS011;63488;48.092;-1.640;2023-07-20T03:26:36;4.80;;;1.90;;
74926;SDS011;63488;48.092;-1.640;2023-07-20T03:29:02;6.05;;;2.20;;
74926;SDS011;63488;48.092;-1.640;2023-07-20T03:31:27;5.10;;;2.00;;
74926;SDS011;63488;48.092;-1.640;2023-07-20T03:33:53;5.45;;;2.20;;
74926;SDS011;63488;48.092;-1.640;2023-07-20T03:36:18;4.15;;;2.10;;
74926;SDS011;63488;48.092;-1.640;2023-07-20T03:38:43;6.75;;;2.00;;
74926;SDS011;63488;48.092;-1.640;2023-07-20T03:41:09;4.70;;;1.80;;
74926;SDS011;63488;48.092;-1.640;2023-07-20T03:43:37;5.18;;;2.03;;
74926;SDS011;63488;48.092;-1.640;2023-07-20T03:46:02;3.42;;;2.20;;
74926;SDS011;63488;48.092;-1.640;2023-07-20T03:48:32;5.20;;;2.20;;
74926;SDS011;63488;48.092;-1.640;2023-07-20T03:50:57;6.53;;;1.90;;
74926;SDS011;63488;48.092;-1.640;2023-07-20T03:53:23;5.30;;;2.30;;
74926;SDS011;63488;48.092;-1.640;2023-07-20T03:55:49;5.80;;;2.17;;
74926;SDS011;63488;48.092;-1.640;2023-07-20T03:58:14;3.42;;;2.00;;
74926;SDS011;63488;48.092;-1.640;2023-07-20T04:00:42;3.83;;;2.08;;
74926;SDS011;63488;48.092;-1.640;2023-07-20T04:03:08;5.50;;;2.30;;
74926;SDS011;63488;48.092;-1.640;2023-07-20T04:05:33;5.70;;;2.40;;
74926;SDS011;63488;48.092;-1.640;2023-07-20T04:07:58;4.80;;;1.90;;
74926;SDS011;63488;48.092;-1.640;2023-07-20T04:10:24;4.57;;;2.17;;
74926;SDS011;63488;48.092;-1.640;2023-07-20T04:12:49;4.95;;;2.22;;
74926;SDS011;63488;48.092;-1.640;2023-07-20T04:15:15;4.95;;;2.33;;
74926;SDS011;63488;48.092;-1.640;2023-07-20T04:17:40;8.05;;;2.63;;
74926;SDS011;63488;48.092;-1.640;2023-07-20T04:20:06;4.47;;;2.40;;
74926;SDS011;63488;48.092;-1.640;2023-07-20T04:22:31;6.85;;;2.13;;
74926;SDS011;63488;48.092;-1.640;2023-07-20T04:24:57;8.45;;;2.53;;
74926;SDS011;63488;48.092;-1.640;2023-07-20T04:27:22;8.75;;;2.65;;
74926;SDS011;63488;48.092;-1.640;2023-07-20T04:29:48;5.20;;;2.28;;
74926;SDS011;63488;48.092;-1.640;2023-07-20T04:32:13;4.78;;;2.45;;
74926;SDS011;63488;48.092;-1.640;2023-07-20T04:34:38;6.03;;;2.35;;
74926;SDS011;63488;48.092;-1.640;2023-07-20T04:37:04;5.57;;;2.83;;
74926;SDS011;63488;48.092;-1.640;2023-07-20T04:39:30;7.35;;;2.53;;
74926;SDS011;63488;48.092;-1.640;2023-07-20T04:41:55;5.97;;;2.90;;
74926;SDS011;63488;48.092;-1.640;2023-07-20T04:44:21;4.50;;;2.60;;
74926;SDS011;63488;48.092;-1.640;2023-07-20T04:46:46;9.52;;;2.65;;
74926;SDS011;63488;48.092;-1.640;2023-07-20T04:49:11;4.97;;;2.85;;
74926;SDS011;63488;48.092;-1.640;2023-07-20T04:51:38;5.65;;;2.80;;
74926;SDS011;63488;48.092;-1.640;2023-07-20T04:54:03;6.53;;;2.90;;
74926;SDS011;63488;48.092;-1.640;2023-07-20T04:56:28;4.20;;;2.80;;
74926;SDS011;63488;48.092;-1.640;2023-07-20T04:58:54;6.05;;;2.80;;
74926;SDS011;63488;48.092;-1.640;2023-07-20T05:01:19;5.40;;;2.80;;
74926;SDS011;63488;48.092;-1.640;2023-07-20T05:03:45;7.10;;;3.15;;
74926;SDS011;63488;48.092;-1.640;2023-07-20T05:06:10;5.88;;;3.08;;
74926;SDS011;63488;48.092;-1.640;2023-07-20T05:08:35;6.47;;;3.15;;
74926;SDS011;63488;48.092;-1.640;2023-07-20T05:11:01;6.45;;;2.95;;
74926;SDS011;63488;48.092;-1.640;2023-07-20T05:13:26;5.65;;;2.60;;
74926;SDS011;63488;48.092;-1.640;2023-07-20T05:15:52;4.80;;;2.75;;
74926;SDS011;63488;48.092;-1.640;2023-07-20T05:18:18;5.47;;;2.90;;
74926;SDS011;63488;48.092;-1.640;2023-07-20T05:20:48;5.22;;;3.25;;
74926;SDS011;63488;48.092;-1.640;2023-07-20T05:23:13;6.28;;;3.03;;
74926;SDS011;63488;48.092;-1.640;2023-07-20T05:25:39;6.82;;;3.00;;
74926;SDS011;63488;48.092;-1.640;2023-07-20T05:28:04;7.47;;;2.90;;
74926;SDS011;63488;48.092;-1.640;2023-07-20T05:30:30;6.30;;;3.03;;
74926;SDS011;63488;48.092;-1.640;2023-07-20T05:32:55;4.85;;;3.03;;
74926;SDS011;63488;48.092;-1.640;2023-07-20T05:35:20;5.35;;;3.15;;
74926;SDS011;63488;48.092;-1.640;2023-07-20T05:37:47;4.75;;;3.08;;
74926;SDS011;63488;48.092;-1.640;2023-07-20T05:40:13;6.05;;;3.05;;
74926;SDS011;63488;48.092;-1.640;2023-07-20T05:42:39;5.40;;;2.83;;
74926;SDS011;63488;48.092;-1.640;2023-07-20T05:45:05;7.10;;;2.92;;
74926;SDS011;63488;48.092;-1.640;2023-07-20T05:47:30;5.82;;;3.30;;
74926;SDS011;63488;48.092;-1.640;2023-07-20T05:49:57;9.18;;;2.95;;
74926;SDS011;63488;48.092;-1.640;2023-07-20T05:52:22;7.15;;;3.42;;
74926;SDS011;63488;48.092;-1.640;2023-07-20T05:54:47;7.28;;;3.25;;
74926;SDS011;63488;48.092;-1.640;2023-07-20T05:57:13;6.00;;;3.28;;
74926;SDS011;63488;48.092;-1.640;2023-07-20T05:59:38;7.40;;;3.10;;
74926;SDS011;63488;48.092;-1.640;2023-07-20T06:02:05;7.78;;;3.53;;
74926;SDS011;63488;48.092;-1.640;2023-07-20T06:04:32;6.60;;;3.20;;
74926;SDS011;63488;48.092;-1.640;2023-07-20T06:06:57;4.45;;;3.10;;
74926;SDS011;63488;48.092;-1.640;2023-07-20T06:09:22;8.35;;;3.20;;
74926;SDS011;63488;48.092;-1.640;2023-07-20T06:11:48;7.40;;;3.13;;
74926;SDS011;63488;48.092;-1.640;2023-07-20T06:14:13;9.20;;;3.17;;
74926;SDS011;63488;48.092;-1.640;2023-07-20T06:16:39;5.78;;;3.22;;
74926;SDS011;63488;48.092;-1.640;2023-07-20T06:19:04;6.88;;;3.30;;
74926;SDS011;63488;48.092;-1.640;2023-07-20T06:21:29;5.85;;;3.50;;
74926;SDS011;63488;48.092;-1.640;2023-07-20T06:23:55;5.50;;;3.17;;
74926;SDS011;63488;48.092;-1.640;2023-07-20T06:26:20;6.47;;;2.53;;
74926;SDS011;63488;48.092;-1.640;2023-07-20T06:28:46;4.68;;;2.20;;
74926;SDS011;63488;48.092;-1.640;2023-07-20T06:31:11;5.32;;;2.20;;
74926;SDS011;63488;48.092;-1.640;2023-07-20T06:33:36;5.57;;;2.40;;
74926;SDS011;63488;48.092;-1.640;2023-07-20T06:36:02;5.18;;;2.75;;
74926;SDS011;63488;48.092;-1.640;2023-07-20T06:38:28;4.95;;;2.60;;
74926;SDS011;63488;48.092;-1.640;2023-07-20T06:40:54;6.07;;;3.03;;
74926;SDS011;63488;48.092;-1.640;2023-07-20T06:43:19;5.18;;;2.60;;
74926;SDS011;63488;48.092;-1.640;2023-07-20T06:45:50;5.40;;;2.38;;
74926;SDS011;63488;48.092;-1.640;2023-07-20T06:48:16;4.88;;;2.60;;
74926;SDS011;63488;48.092;-1.640;2023-07-20T06:50:42;8.18;;;2.90;;
74926;SDS011;63488;48.092;-1.640;2023-07-20T06:53:07;4.30;;;2.55;;
74926;SDS011;63488;48.092;-1.640;2023-07-20T06:55:33;5.22;;;2.55;;
74926;SDS011;63488;48.092;-1.640;2023-07-20T06:57:58;5.68;;;2.50;;
74926;SDS011;63488;48.092;-1.640;2023-07-20T07:00:23;6.68;;;2.47;;
74926;SDS011;63488;48.092;-1.640;2023-07-20T07:02:49;4.57;;;2.72;;
74926;SDS011;63488;48.092;-1.640;2023-07-20T07:05:14;5.05;;;2.90;;
74926;SDS011;63488;48.092;-1.640;2023-07-20T07:07:40;5.65;;;2.60;;
74926;SDS011;63488;48.092;-1.640;2023-07-20T07:10:06;5.88;;;2.60;;
74926;SDS011;63488;48.092;-1.640;2023-07-20T07:12:31;4.82;;;2.47;;
74926;SDS011;63488;48.092;-1.640;2023-07-20T07:14:57;6.72;;;2.30;;
74926;SDS011;63488;48.092;-1.640;2023-07-20T07:17:23;7.40;;;2.33;;
74926;SDS011;63488;48.092;-1.640;2023-07-20T07:19:48;5.68;;;2.42;;
74926;SDS011;63488;48.092;-1.640;2023-07-20T07:22:14;6.22;;;2.90;;
74926;SDS011;63488;48.092;-1.640;2023-07-20T07:24:39;7.03;;;2.55;;
74926;SDS011;63488;48.092;-1.640;2023-07-20T07:27:07;6.80;;;2.80;;
74926;SDS011;63488;48.092;-1.640;2023-07-20T07:29:33;5.07;;;2.53;;
74926;SDS011;63488;48.092;-1.640;2023-07-20T07:31:58;7.03;;;2.58;;
74926;SDS011;63488;48.092;-1.640;2023-07-20T07:34:24;5.85;;;3.08;;
74926;SDS011;63488;48.092;-1.640;2023-07-20T07:36:50;4.82;;;2.50;;
74926;SDS011;63488;48.092;-1.640;2023-07-20T07:39:15;6.90;;;2.20;;
74926;SDS011;63488;48.092;-1.640;2023-07-20T07:41:42;4.00;;;2.08;;
74926;SDS011;63488;48.092;-1.640;2023-07-20T07:44:08;6.03;;;2.25;;
74926;SDS011;63488;48.092;-1.640;2023-07-20T07:46:33;7.95;;;2.40;;
74926;SDS011;63488;48.092;-1.640;2023-07-20T07:48:59;3.63;;;1.90;;
74926;SDS011;63488;48.092;-1.640;2023-07-20T07:51:24;6.07;;;2.00;;
74926;SDS011;63488;48.092;-1.640;2023-07-20T07:53:49;7.22;;;2.65;;
74926;SDS011;63488;48.092;-1.640;2023-07-20T07:56:15;6.15;;;2.22;;
74926;SDS011;63488;48.092;-1.640;2023-07-20T07:58:41;4.35;;;2.10;;
74926;SDS011;63488;48.092;-1.640;2023-07-20T08:01:07;4.65;;;2.03;;
74926;SDS011;63488;48.092;-1.640;2023-07-20T08:03:32;3.58;;;1.85;;
74926;SDS011;63488;48.092;-1.640;2023-07-20T08:05:57;5.93;;;2.00;;
74926;SDS011;63488;48.092;-1.640;2023-07-20T08:08:25;5.28;;;1.75;;
74926;SDS011;63488;48.092;-1.640;2023-07-20T08:10:52;6.80;;;2.10;;
74926;SDS011;63488;48.092;-1.640;2023-07-20T08:13:18;6.90;;;2.05;;
74926;SDS011;63488;48.092;-1.640;2023-07-20T08:15:45;5.03;;;2.03;;
74926;SDS011;63488;48.092;-1.640;2023-07-20T08:18:11;7.95;;;2.20;;
74926;SDS011;63488;48.092;-1.640;2023-07-20T08:20:36;5.20;;;2.30;;
74926;SDS011;63488;48.092;-1.640;2023-07-20T08:23:01;5.28;;;2.53;;
74926;SDS011;63488;48.092;-1.640;2023-07-20T08:25:27;8.13;;;2.30;;
74926;SDS011;63488;48.092;-1.640;2023-07-20T08:27:52;4.25;;;1.90;;
74926;SDS011;63488;48.092;-1.640;2023-07-20T08:30:17;6.38;;;2.10;;
74926;SDS011;63488;48.092;-1.640;2023-07-20T08:32:43;3.15;;;2.13;;
74926;SDS011;63488;48.092;-1.640;2023-07-20T08:35:08;6.97;;;2.75;;
74926;SDS011;63488;48.092;-1.640;2023-07-20T08:37:34;4.57;;;2.00;;
74926;SDS011;63488;48.092;-1.640;2023-07-20T08:39:59;5.38;;;1.88;;
74926;SDS011;63488;48.092;-1.640;2023-07-20T08:42:24;6.85;;;2.25;;
74926;SDS011;63488;48.092;-1.640;2023-07-20T08:44:50;5.40;;;2.03;;
74926;SDS011;63488;48.092;-1.640;2023-07-20T08:47:17;6.28;;;1.98;;
74926;SDS011;63488;48.092;-1.640;2023-07-20T08:49:44;6.28;;;1.88;;
74926;SDS011;63488;48.092;-1.640;2023-07-20T08:52:11;4.20;;;1.65;;
74926;SDS011;63488;48.092;-1.640;2023-07-20T08:54:37;3.85;;;1.90;;
74926;SDS011;63488;48.092;-1.640;2023-07-20T08:57:04;4.72;;;1.90;;
74926;SDS011;63488;48.092;-1.640;2023-07-20T08:59:30;4.78;;;1.77;;
74926;SDS011;63488;48.092;-1.640;2023-07-20T09:01:59;6.75;;;2.10;;
74926;SDS011;63488;48.092;-1.640;2023-07-20T09:06:50;4.13;;;1.97;;
74926;SDS011;63488;48.092;-1.640;2023-07-20T09:09:16;5.05;;;1.73;;
74926;SDS011;63488;48.092;-1.640;2023-07-20T09:11:41;4.78;;;1.58;;
74926;SDS011;63488;48.092;-1.640;2023-07-20T09:14:07;4.70;;;1.80;;
74926;SDS011;63488;48.092;-1.640;2023-07-20T09:16:37;4.55;;;1.90;;
74926;SDS011;63488;48.092;-1.640;2023-07-20T09:19:12;6.03;;;1.83;;
74926;SDS011;63488;48.092;-1.640;2023-07-20T09:21:38;3.78;;;1.77;;
74926;SDS011;63488;48.092;-1.640;2023-07-20T09:24:03;5.60;;;1.75;;
74926;SDS011;63488;48.092;-1.640;2023-07-20T09:26:28;6.00;;;1.98;;
74926;SDS011;63488;48.092;-1.640;2023-07-20T09:28:54;3.35;;;1.80;;
74926;SDS011;63488;48.092;-1.640;2023-07-20T09:31:21;5.80;;;1.85;;
74926;SDS011;63488;48.092;-1.640;2023-07-20T09:33:47;6.80;;;1.60;;
74926;SDS011;63488;48.092;-1.640;2023-07-20T09:36:13;3.38;;;1.58;;
74926;SDS011;63488;48.092;-1.640;2023-07-20T09:38:40;3.40;;;1.60;;
74926;SDS011;63488;48.092;-1.640;2023-07-20T09:41:06;4.60;;;1.50;;
74926;SDS011;63488;48.092;-1.640;2023-07-20T09:43:32;5.07;;;1.50;;
74926;SDS011;63488;48.092;-1.640;2023-07-20T09:45:59;4.75;;;1.70;;
74926;SDS011;63488;48.092;-1.640;2023-07-20T09:48:24;5.07;;;1.75;;
74926;SDS011;63488;48.092;-1.640;2023-07-20T09:50:52;3.40;;;1.60;;
74926;SDS011;63488;48.092;-1.640;2023-07-20T09:53:18;5.03;;;1.52;;
74926;SDS011;63488;48.092;-1.640;2023-07-20T09:55:44;3.60;;;1.88;;
74926;SDS011;63488;48.092;-1.640;2023-07-20T09:58:10;3.63;;;1.92;;
74926;SDS011;63488;48.092;-1.640;2023-07-20T10:00:36;4.03;;;1.38;;
74926;SDS011;63488;48.092;-1.640;2023-07-20T10:03:01;4.53;;;1.50;;
74926;SDS011;63488;48.092;-1.640;2023-07-20T10:05:28;2.88;;;1.58;;
74926;SDS011;63488;48.092;-1.640;2023-07-20T10:07:59;3.78;;;1.60;;
74926;SDS011;63488;48.092;-1.640;2023-07-20T10:10:24;3.20;;;1.52;;
74926;SDS011;63488;48.092;-1.640;2023-07-20T10:12:49;3.42;;;1.35;;
74926;SDS011;63488;48.092;-1.640;2023-07-20T10:15:24;6.22;;;1.75;;
74926;SDS011;63488;48.092;-1.640;2023-07-20T10:17:55;4.60;;;1.50;;
74926;SDS011;63488;48.092;-1.640;2023-07-20T10:20:22;2.45;;;1.50;;
74926;SDS011;63488;48.092;-1.640;2023-07-20T10:22:50;3.28;;;1.10;;
74926;SDS011;63488;48.092;-1.640;2023-07-20T10:27:43;3.80;;;1.50;;
74926;SDS011;63488;48.092;-1.640;2023-07-20T10:30:08;4.40;;;1.60;;
74926;SDS011;63488;48.092;-1.640;2023-07-20T10:32:34;3.58;;;1.30;;
74926;SDS011;63488;48.092;-1.640;2023-07-20T10:35:00;4.25;;;1.40;;
74926;SDS011;63488;48.092;-1.640;2023-07-20T10:40:38;5.00;;;1.33;;
74926;SDS011;63488;48.092;-1.640;2023-07-20T10:43:07;3.78;;;1.30;;
74926;SDS011;63488;48.092;-1.640;2023-07-20T10:48:04;2.45;;;1.40;;
74926;SDS011;63488;48.092;-1.640;2023-07-20T10:50:31;2.08;;;1.20;;
74926;SDS011;63488;48.092;-1.640;2023-07-20T10:55:37;6.90;;;1.23;;
74926;SDS011;63488;48.092;-1.640;2023-07-20T10:58:06;2.80;;;1.45;;
74926;SDS011;63488;48.092;-1.640;2023-07-20T11:00:32;2.63;;;1.17;;
74926;SDS011;63488;48.092;-1.640;2023-07-20T11:02:58;2.13;;;1.20;;
74926;SDS011;63488;48.092;-1.640;2023-07-20T11:05:33;4.07;;;1.35;;
74926;SDS011;63488;48.092;-1.640;2023-07-20T11:08:00;3.15;;;1.35;;
74926;SDS011;63488;48.092;-1.640;2023-07-20T11:10:25;3.97;;;1.40;;
74926;SDS011;63488;48.092;-1.640;2023-07-20T11:15:44;4.18;;;1.50;;
74926;SDS011;63488;48.092;-1.640;2023-07-20T11:18:12;4.03;;;1.20;;
74926;SDS011;63488;48.092;-1.640;2023-07-20T11:20:38;2.92;;;1.33;;
74926;SDS011;63488;48.092;-1.640;2023-07-20T11:23:03;5.35;;;1.38;;
74926;SDS011;63488;48.092;-1.640;2023-07-20T11:25:35;3.95;;;1.30;;
74926;SDS011;63488;48.092;-1.640;2023-07-20T11:28:01;4.13;;;1.25;;
74926;SDS011;63488;48.092;-1.640;2023-07-20T11:30:26;2.85;;;1.40;;
74926;SDS011;63488;48.092;-1.640;2023-07-20T11:32:52;4.20;;;1.27;;
74926;SDS011;63488;48.092;-1.640;2023-07-20T11:35:17;4.22;;;1.17;;
74926;SDS011;63488;48.092;-1.640;2023-07-20T11:37:42;4.40;;;1.40;;
74926;SDS011;63488;48.092;-1.640;2023-07-20T11:40:09;3.60;;;1.88;;
74926;SDS011;63488;48.092;-1.640;2023-07-20T11:42:34;2.88;;;1.30;;
74926;SDS011;63488;48.092;-1.640;2023-07-20T11:45:01;4.55;;;1.35;;
74926;SDS011;63488;48.092;-1.640;2023-07-20T11:47:29;3.83;;;1.50;;
74926;SDS011;63488;48.092;-1.640;2023-07-20T11:49:54;2.05;;;1.20;;
74926;SDS011;63488;48.092;-1.640;2023-07-20T11:52:19;4.38;;;1.58;;
74926;SDS011;63488;48.092;-1.640;2023-07-20T11:54:45;4.20;;;1.48;;
74926;SDS011;63488;48.092;-1.640;2023-07-20T11:57:19;5.40;;;1.45;;
74926;SDS011;63488;48.092;-1.640;2023-07-20T11:59:54;3.33;;;1.38;;
74926;SDS011;63488;48.092;-1.640;2023-07-20T12:02:22;1.95;;;1.17;;
74926;SDS011;63488;48.092;-1.640;2023-07-20T12:04:49;3.17;;;1.17;;
74926;SDS011;63488;48.092;-1.640;2023-07-20T12:07:15;4.07;;;1.42;;
74926;SDS011;63488;48.092;-1.640;2023-07-20T12:09:41;2.95;;;1.38;;
74926;SDS011;63488;48.092;-1.640;2023-07-20T12:12:09;2.25;;;1.05;;
74926;SDS011;63488;48.092;-1.640;2023-07-20T12:14:37;3.88;;;1.20;;
74926;SDS011;63488;48.092;-1.640;2023-07-20T12:17:02;2.85;;;1.10;;
74926;SDS011;63488;48.092;-1.640;2023-07-20T12:19:27;1.85;;;1.10;;
74926;SDS011;63488;48.092;-1.640;2023-07-20T12:21:56;2.33;;;1.02;;
74926;SDS011;63488;48.092;-1.640;2023-07-20T12:24:22;2.75;;;1.30;;
74926;SDS011;63488;48.092;-1.640;2023-07-20T12:26:48;3.35;;;1.30;;
74926;SDS011;63488;48.092;-1.640;2023-07-20T12:29:13;2.53;;;1.10;;
74926;SDS011;63488;48.092;-1.640;2023-07-20T12:31:38;2.72;;;1.20;;
74926;SDS011;63488;48.092;-1.640;2023-07-20T12:34:04;2.75;;;1.20;;
74926;SDS011;63488;48.092;-1.640;2023-07-20T12:36:29;5.70;;;1.10;;
74926;SDS011;63488;48.092;-1.640;2023-07-20T12:38:56;2.20;;;1.02;;
74926;SDS011;63488;48.092;-1.640;2023-07-20T12:41:21;4.35;;;1.17;;
74926;SDS011;63488;48.092;-1.640;2023-07-20T12:43:46;2.55;;;1.25;;
74926;SDS011;63488;48.092;-1.640;2023-07-20T12:46:12;3.67;;;1.00;;
74926;SDS011;63488;48.092;-1.640;2023-07-20T12:48:38;3.10;;;1.25;;
74926;SDS011;63488;48.092;-1.640;2023-07-20T12:51:06;2.70;;;1.00;;
74926;SDS011;63488;48.092;-1.640;2023-07-20T12:53:31;2.55;;;1.10;;
74926;SDS011;63488;48.092;-1.640;2023-07-20T12:55:57;4.07;;;1.08;;
74926;SDS011;63488;48.092;-1.640;2023-07-20T12:58:23;1.25;;;0.80;;
74926;SDS011;63488;48.092;-1.640;2023-07-20T13:00:48;1.70;;;0.80;;
74926;SDS011;63488;48.092;-1.640;2023-07-20T13:03:14;3.42;;;1.27;;
74926;SDS011;63488;48.092;-1.640;2023-07-20T13:05:41;2.22;;;1.23;;
74926;SDS011;63488;48.092;-1.640;2023-07-20T13:08:06;4.95;;;1.25;;
74926;SDS011;63488;48.092;-1.640;2023-07-20T13:10:32;1.75;;;1.00;;
74926;SDS011;63488;48.092;-1.640;2023-07-20T13:12:57;1.75;;;0.90;;
74926;SDS011;63488;48.092;-1.640;2023-07-20T13:15:24;1.98;;;1.00;;
74926;SDS011;63488;48.092;-1.640;2023-07-20T13:17:54;2.13;;;0.90;;
74926;SDS011;63488;48.092;-1.640;2023-07-20T13:20:19;3.40;;;1.08;;
74926;SDS011;63488;48.092;-1.640;2023-07-20T13:22:44;1.17;;;0.98;;
74926;SDS011;63488;48.092;-1.640;2023-07-20T13:25:10;2.78;;;1.00;;
74926;SDS011;63488;48.092;-1.640;2023-07-20T13:27:35;1.90;;;0.90;;
74926;SDS011;63488;48.092;-1.640;2023-07-20T13:30:01;2.83;;;1.30;;
74926;SDS011;63488;48.092;-1.640;2023-07-20T13:32:31;3.22;;;0.93;;
74926;SDS011;63488;48.092;-1.640;2023-07-20T13:34:57;1.08;;;0.80;;
74926;SDS011;63488;48.092;-1.640;2023-07-20T13:37:22;2.28;;;0.73;;
74926;SDS011;63488;48.092;-1.640;2023-07-20T13:39:48;2.33;;;1.10;;
74926;SDS011;63488;48.092;-1.640;2023-07-20T13:42:13;4.70;;;0.93;;
74926;SDS011;63488;48.092;-1.640;2023-07-20T13:44:39;2.03;;;0.90;;
74926;SDS011;63488;48.092;-1.640;2023-07-20T13:47:04;1.27;;;0.90;;
74926;SDS011;63488;48.092;-1.640;2023-07-20T13:49:32;2.83;;;0.90;;
74926;SDS011;63488;48.092;-1.640;2023-07-20T13:51:58;1.52;;;0.70;;
74926;SDS011;63488;48.092;-1.640;2023-07-20T13:54:23;3.20;;;1.00;;
74926;SDS011;63488;48.092;-1.640;2023-07-20T13:56:49;2.83;;;1.00;;
74926;SDS011;63488;48.092;-1.640;2023-07-20T13:59:14;1.92;;;0.88;;
74926;SDS011;63488;48.092;-1.640;2023-07-20T14:01:40;3.15;;;0.93;;
74926;SDS011;63488;48.092;-1.640;2023-07-20T14:04:05;2.30;;;0.90;;
74926;SDS011;63488;48.092;-1.640;2023-07-20T14:06:31;3.75;;;1.08;;
74926;SDS011;63488;48.092;-1.640;2023-07-20T14:08:56;4.20;;;1.10;;
74926;SDS011;63488;48.092;-1.640;2023-07-20T14:11:22;2.38;;;0.98;;
74926;SDS011;63488;48.092;-1.640;2023-07-20T14:13:48;1.52;;;0.77;;
74926;SDS011;63488;48.092;-1.640;2023-07-20T14:16:13;2.35;;;0.95;;
74926;SDS011;63488;48.092;-1.640;2023-07-20T14:18:39;2.60;;;0.80;;
74926;SDS011;63488;48.092;-1.640;2023-07-20T14:21:04;2.83;;;1.10;;
74926;SDS011;63488;48.092;-1.640;2023-07-20T14:23:31;1.92;;;0.90;;
74926;SDS011;63488;48.092;-1.640;2023-07-20T14:25:57;5.05;;;1.13;;
74926;SDS011;63488;48.092;-1.640;2023-07-20T14:28:23;3.17;;;1.48;;
74926;SDS011;63488;48.092;-1.640;2023-07-20T14:30:48;2.50;;;1.10;;
74926;SDS011;63488;48.092;-1.640;2023-07-20T14:33:13;1.95;;;1.15;;
74926;SDS011;63488;48.092;-1.640;2023-07-20T14:35:39;2.88;;;1.10;;
74926;SDS011;63488;48.092;-1.640;2023-07-20T14:38:04;4.28;;;1.05;;
74926;SDS011;63488;48.092;-1.640;2023-07-20T14:40:30;2.88;;;1.05;;
74926;SDS011;63488;48.092;-1.640;2023-07-20T14:42:55;2.95;;;1.02;;
74926;SDS011;63488;48.092;-1.640;2023-07-20T14:45:21;2.38;;;1.02;;
74926;SDS011;63488;48.092;-1.640;2023-07-20T14:47:46;1.67;;;1.10;;
74926;SDS011;63488;48.092;-1.640;2023-07-20T14:50:14;2.83;;;1.10;;
74926;SDS011;63488;48.092;-1.640;2023-07-20T14:52:39;1.42;;;1.00;;
74926;SDS011;63488;48.092;-1.640;2023-07-20T14:55:04;1.38;;;0.98;;